ěÝzenÝ letovÚho provozu ╚eskÚ republiky
Letiste: LKPD Aktualizace: 29.05.2023 13:59:38  UTC
 METAR LKPD 29.05. 14:00 ...
METAR LKPD 291400Z 36006KT 290V050 CAVOK 23/04 Q1018 NOSIG RMK BLU BLU=
 TAF LKPD 29.05. 11:00 ...
TAF LKPD 291100Z 2912/3012 04010KT CAVOK      BECMG 2915/2917 04005KT=